sensor_id;sensor_type;location;lat;lon;timestamp;P1;durP1;ratioP1;P2;durP2;ratioP2
6348;SDS011;3207;42.648;23.406;2023-09-19T00:01:19;10.75;;;5.03;;
6348;SDS011;3207;42.648;23.406;2023-09-19T00:03:47;9.52;;;5.43;;
6348;SDS011;3207;42.648;23.406;2023-09-19T00:06:14;14.55;;;5.38;;
6348;SDS011;3207;42.648;23.406;2023-09-19T00:08:40;14.57;;;5.38;;
6348;SDS011;3207;42.648;23.406;2023-09-19T00:11:09;11.70;;;6.13;;
6348;SDS011;3207;42.648;23.406;2023-09-19T00:13:36;15.85;;;5.38;;
6348;SDS011;3207;42.648;23.406;2023-09-19T00:16:07;17.15;;;4.97;;
6348;SDS011;3207;42.648;23.406;2023-09-19T00:18:35;15.68;;;5.88;;
6348;SDS011;3207;42.648;23.406;2023-09-19T00:21:03;10.48;;;5.20;;
6348;SDS011;3207;42.648;23.406;2023-09-19T00:23:32;10.73;;;4.82;;
6348;SDS011;3207;42.648;23.406;2023-09-19T00:25:58;9.75;;;5.22;;
6348;SDS011;3207;42.648;23.406;2023-09-19T00:28:26;10.05;;;4.90;;
6348;SDS011;3207;42.648;23.406;2023-09-19T00:30:52;11.73;;;4.85;;
6348;SDS011;3207;42.648;23.406;2023-09-19T00:33:24;10.05;;;5.57;;
6348;SDS011;3207;42.648;23.406;2023-09-19T00:35:52;12.00;;;6.40;;
6348;SDS011;3207;42.648;23.406;2023-09-19T00:38:20;11.90;;;4.95;;
6348;SDS011;3207;42.648;23.406;2023-09-19T00:40:49;14.63;;;5.03;;
6348;SDS011;3207;42.648;23.406;2023-09-19T00:43:17;14.98;;;5.80;;
6348;SDS011;3207;42.648;23.406;2023-09-19T00:45:44;8.88;;;5.53;;
6348;SDS011;3207;42.648;23.406;2023-09-19T00:48:13;19.10;;;5.70;;
6348;SDS011;3207;42.648;23.406;2023-09-19T00:50:41;9.68;;;5.22;;
6348;SDS011;3207;42.648;23.406;2023-09-19T00:53:09;14.63;;;5.47;;
6348;SDS011;3207;42.648;23.406;2023-09-19T00:55:37;8.65;;;5.00;;
6348;SDS011;3207;42.648;23.406;2023-09-19T00:58:04;7.35;;;4.97;;
6348;SDS011;3207;42.648;23.406;2023-09-19T01:00:32;9.85;;;5.10;;
6348;SDS011;3207;42.648;23.406;2023-09-19T01:02:59;14.70;;;6.30;;
6348;SDS011;3207;42.648;23.406;2023-09-19T01:05:26;13.63;;;5.63;;
6348;SDS011;3207;42.648;23.406;2023-09-19T01:07:53;12.60;;;5.53;;
6348;SDS011;3207;42.648;23.406;2023-09-19T01:10:20;12.05;;;5.70;;
6348;SDS011;3207;42.648;23.406;2023-09-19T01:12:54;12.73;;;5.47;;
6348;SDS011;3207;42.648;23.406;2023-09-19T01:15:22;15.18;;;5.15;;
6348;SDS011;3207;42.648;23.406;2023-09-19T01:17:52;10.75;;;4.85;;
6348;SDS011;3207;42.648;23.406;2023-09-19T01:20:21;13.48;;;5.25;;
6348;SDS011;3207;42.648;23.406;2023-09-19T01:22:53;14.02;;;5.32;;
6348;SDS011;3207;42.648;23.406;2023-09-19T01:25:32;16.42;;;5.32;;
6348;SDS011;3207;42.648;23.406;2023-09-19T01:28:20;10.98;;;5.47;;
6348;SDS011;3207;42.648;23.406;2023-09-19T01:30:56;11.18;;;5.90;;
6348;SDS011;3207;42.648;23.406;2023-09-19T01:33:25;11.05;;;5.13;;
6348;SDS011;3207;42.648;23.406;2023-09-19T01:35:52;12.93;;;4.65;;
6348;SDS011;3207;42.648;23.406;2023-09-19T01:38:22;12.32;;;5.32;;
6348;SDS011;3207;42.648;23.406;2023-09-19T01:40:51;12.75;;;5.50;;
6348;SDS011;3207;42.648;23.406;2023-09-19T01:43:26;8.27;;;4.90;;
6348;SDS011;3207;42.648;23.406;2023-09-19T01:46:03;8.02;;;4.78;;
6348;SDS011;3207;42.648;23.406;2023-09-19T01:48:32;16.02;;;5.50;;
6348;SDS011;3207;42.648;23.406;2023-09-19T01:51:02;10.48;;;4.60;;
6348;SDS011;3207;42.648;23.406;2023-09-19T01:53:30;18.08;;;5.15;;
6348;SDS011;3207;42.648;23.406;2023-09-19T01:55:59;18.05;;;5.25;;
6348;SDS011;3207;42.648;23.406;2023-09-19T01:58:34;11.68;;;5.32;;
6348;SDS011;3207;42.648;23.406;2023-09-19T02:01:04;13.18;;;5.47;;
6348;SDS011;3207;42.648;23.406;2023-09-19T02:03:32;9.38;;;5.57;;
6348;SDS011;3207;42.648;23.406;2023-09-19T02:05:59;10.70;;;5.45;;
6348;SDS011;3207;42.648;23.406;2023-09-19T02:08:26;15.60;;;5.30;;
6348;SDS011;3207;42.648;23.406;2023-09-19T02:10:54;7.50;;;4.72;;
6348;SDS011;3207;42.648;23.406;2023-09-19T02:13:21;10.63;;;5.35;;
6348;SDS011;3207;42.648;23.406;2023-09-19T02:15:49;11.18;;;6.15;;
6348;SDS011;3207;42.648;23.406;2023-09-19T02:18:17;11.18;;;5.30;;
6348;SDS011;3207;42.648;23.406;2023-09-19T02:20:43;12.18;;;4.78;;
6348;SDS011;3207;42.648;23.406;2023-09-19T02:23:11;10.00;;;4.57;;
6348;SDS011;3207;42.648;23.406;2023-09-19T02:25:37;13.93;;;6.25;;
6348;SDS011;3207;42.648;23.406;2023-09-19T02:28:05;8.20;;;4.70;;
6348;SDS011;3207;42.648;23.406;2023-09-19T02:30:32;12.00;;;5.45;;
6348;SDS011;3207;42.648;23.406;2023-09-19T02:32:58;18.90;;;6.40;;
6348;SDS011;3207;42.648;23.406;2023-09-19T02:35:28;6.65;;;4.60;;
6348;SDS011;3207;42.648;23.406;2023-09-19T02:37:58;14.65;;;4.97;;
6348;SDS011;3207;42.648;23.406;2023-09-19T02:40:24;9.68;;;5.57;;
6348;SDS011;3207;42.648;23.406;2023-09-19T02:42:53;9.35;;;4.50;;
6348;SDS011;3207;42.648;23.406;2023-09-19T02:45:20;13.75;;;5.68;;
6348;SDS011;3207;42.648;23.406;2023-09-19T02:47:47;11.30;;;5.55;;
6348;SDS011;3207;42.648;23.406;2023-09-19T02:50:15;8.70;;;4.60;;
6348;SDS011;3207;42.648;23.406;2023-09-19T02:52:43;10.32;;;6.22;;
6348;SDS011;3207;42.648;23.406;2023-09-19T02:55:12;10.88;;;5.43;;
6348;SDS011;3207;42.648;23.406;2023-09-19T02:57:45;8.45;;;4.85;;
6348;SDS011;3207;42.648;23.406;2023-09-19T03:00:12;10.57;;;4.97;;
6348;SDS011;3207;42.648;23.406;2023-09-19T03:02:39;12.15;;;5.70;;
6348;SDS011;3207;42.648;23.406;2023-09-19T03:05:06;6.78;;;4.47;;
6348;SDS011;3207;42.648;23.406;2023-09-19T03:07:36;11.00;;;5.70;;
6348;SDS011;3207;42.648;23.406;2023-09-19T03:10:05;12.95;;;6.05;;
6348;SDS011;3207;42.648;23.406;2023-09-19T03:12:32;9.88;;;5.15;;
6348;SDS011;3207;42.648;23.406;2023-09-19T03:14:59;10.73;;;5.20;;
6348;SDS011;3207;42.648;23.406;2023-09-19T03:17:26;14.43;;;5.15;;
6348;SDS011;3207;42.648;23.406;2023-09-19T03:19:52;9.55;;;4.57;;
6348;SDS011;3207;42.648;23.406;2023-09-19T03:22:19;12.95;;;5.90;;
6348;SDS011;3207;42.648;23.406;2023-09-19T03:24:46;17.90;;;5.63;;
6348;SDS011;3207;42.648;23.406;2023-09-19T03:27:14;19.30;;;6.13;;
6348;SDS011;3207;42.648;23.406;2023-09-19T03:29:41;11.63;;;5.65;;
6348;SDS011;3207;42.648;23.406;2023-09-19T03:32:07;10.38;;;5.82;;
6348;SDS011;3207;42.648;23.406;2023-09-19T03:34:35;15.93;;;5.50;;
6348;SDS011;3207;42.648;23.406;2023-09-19T03:37:02;7.47;;;5.55;;
6348;SDS011;3207;42.648;23.406;2023-09-19T03:39:29;9.40;;;5.95;;
6348;SDS011;3207;42.648;23.406;2023-09-19T03:41:55;11.80;;;6.07;;
6348;SDS011;3207;42.648;23.406;2023-09-19T03:44:23;12.60;;;5.55;;
6348;SDS011;3207;42.648;23.406;2023-09-19T03:46:50;12.13;;;5.95;;
6348;SDS011;3207;42.648;23.406;2023-09-19T03:49:16;11.45;;;5.68;;
6348;SDS011;3207;42.648;23.406;2023-09-19T03:51:44;15.50;;;6.22;;
6348;SDS011;3207;42.648;23.406;2023-09-19T03:54:10;13.68;;;5.80;;
6348;SDS011;3207;42.648;23.406;2023-09-19T03:56:37;12.00;;;6.22;;
6348;SDS011;3207;42.648;23.406;2023-09-19T03:59:04;16.52;;;5.95;;
6348;SDS011;3207;42.648;23.406;2023-09-19T04:01:32;10.38;;;5.65;;
6348;SDS011;3207;42.648;23.406;2023-09-19T04:03:59;14.82;;;6.70;;
6348;SDS011;3207;42.648;23.406;2023-09-19T04:06:33;11.70;;;6.75;;
6348;SDS011;3207;42.648;23.406;2023-09-19T04:09:00;12.68;;;5.65;;
6348;SDS011;3207;42.648;23.406;2023-09-19T04:11:26;11.77;;;5.28;;
6348;SDS011;3207;42.648;23.406;2023-09-19T04:13:53;12.60;;;6.55;;
6348;SDS011;3207;42.648;23.406;2023-09-19T04:16:20;18.70;;;6.78;;
6348;SDS011;3207;42.648;23.406;2023-09-19T04:18:48;11.68;;;6.38;;
6348;SDS011;3207;42.648;23.406;2023-09-19T04:21:14;16.02;;;7.03;;
6348;SDS011;3207;42.648;23.406;2023-09-19T04:23:41;15.05;;;6.75;;
6348;SDS011;3207;42.648;23.406;2023-09-19T04:26:08;18.77;;;6.63;;
6348;SDS011;3207;42.648;23.406;2023-09-19T04:28:35;15.80;;;5.90;;
6348;SDS011;3207;42.648;23.406;2023-09-19T04:31:03;17.88;;;6.13;;
6348;SDS011;3207;42.648;23.406;2023-09-19T04:33:33;9.90;;;5.93;;
6348;SDS011;3207;42.648;23.406;2023-09-19T04:36:01;9.50;;;6.25;;
6348;SDS011;3207;42.648;23.406;2023-09-19T04:38:28;17.15;;;7.28;;
6348;SDS011;3207;42.648;23.406;2023-09-19T04:40:56;12.10;;;6.75;;
6348;SDS011;3207;42.648;23.406;2023-09-19T04:43:23;13.38;;;6.95;;
6348;SDS011;3207;42.648;23.406;2023-09-19T04:45:50;16.35;;;6.53;;
6348;SDS011;3207;42.648;23.406;2023-09-19T04:48:20;11.20;;;5.80;;
6348;SDS011;3207;42.648;23.406;2023-09-19T04:50:48;21.13;;;7.68;;
6348;SDS011;3207;42.648;23.406;2023-09-19T04:53:16;16.13;;;6.45;;
6348;SDS011;3207;42.648;23.406;2023-09-19T04:55:42;14.90;;;5.80;;
6348;SDS011;3207;42.648;23.406;2023-09-19T04:58:09;9.15;;;6.32;;
6348;SDS011;3207;42.648;23.406;2023-09-19T05:00:36;9.98;;;6.10;;
6348;SDS011;3207;42.648;23.406;2023-09-19T05:03:03;16.13;;;6.53;;
6348;SDS011;3207;42.648;23.406;2023-09-19T05:05:31;9.43;;;5.32;;
6348;SDS011;3207;42.648;23.406;2023-09-19T05:07:58;14.27;;;6.20;;
6348;SDS011;3207;42.648;23.406;2023-09-19T05:10:27;18.98;;;7.80;;
6348;SDS011;3207;42.648;23.406;2023-09-19T05:12:53;14.82;;;6.95;;
6348;SDS011;3207;42.648;23.406;2023-09-19T05:15:20;16.08;;;7.80;;
6348;SDS011;3207;42.648;23.406;2023-09-19T05:17:50;14.18;;;7.07;;
6348;SDS011;3207;42.648;23.406;2023-09-19T05:20:17;15.48;;;6.63;;
6348;SDS011;3207;42.648;23.406;2023-09-19T05:22:50;16.08;;;6.30;;
6348;SDS011;3207;42.648;23.406;2023-09-19T05:25:17;17.00;;;7.22;;
6348;SDS011;3207;42.648;23.406;2023-09-19T05:27:45;17.40;;;7.45;;
6348;SDS011;3207;42.648;23.406;2023-09-19T05:30:12;12.00;;;7.03;;
6348;SDS011;3207;42.648;23.406;2023-09-19T05:32:41;17.65;;;8.15;;
6348;SDS011;3207;42.648;23.406;2023-09-19T05:35:09;15.15;;;7.22;;
6348;SDS011;3207;42.648;23.406;2023-09-19T05:37:38;12.60;;;7.38;;
6348;SDS011;3207;42.648;23.406;2023-09-19T05:40:05;15.13;;;7.72;;
6348;SDS011;3207;42.648;23.406;2023-09-19T05:42:35;23.33;;;8.27;;
6348;SDS011;3207;42.648;23.406;2023-09-19T05:45:05;12.45;;;7.07;;
6348;SDS011;3207;42.648;23.406;2023-09-19T05:47:32;19.33;;;7.70;;
6348;SDS011;3207;42.648;23.406;2023-09-19T05:50:02;13.73;;;7.43;;
6348;SDS011;3207;42.648;23.406;2023-09-19T05:52:30;16.30;;;6.22;;
6348;SDS011;3207;42.648;23.406;2023-09-19T05:54:56;15.15;;;7.13;;
6348;SDS011;3207;42.648;23.406;2023-09-19T05:57:23;13.48;;;7.13;;
6348;SDS011;3207;42.648;23.406;2023-09-19T05:59:50;14.07;;;7.00;;
6348;SDS011;3207;42.648;23.406;2023-09-19T06:02:17;12.65;;;6.05;;
6348;SDS011;3207;42.648;23.406;2023-09-19T06:04:44;9.73;;;5.50;;
6348;SDS011;3207;42.648;23.406;2023-09-19T06:07:11;9.90;;;5.20;;
6348;SDS011;3207;42.648;23.406;2023-09-19T06:09:38;12.90;;;4.68;;
6348;SDS011;3207;42.648;23.406;2023-09-19T06:12:05;9.02;;;4.15;;
6348;SDS011;3207;42.648;23.406;2023-09-19T06:14:32;9.68;;;3.72;;
6348;SDS011;3207;42.648;23.406;2023-09-19T06:16:58;7.55;;;4.70;;
6348;SDS011;3207;42.648;23.406;2023-09-19T06:19:27;8.43;;;4.22;;
6348;SDS011;3207;42.648;23.406;2023-09-19T06:21:53;7.38;;;3.88;;
6348;SDS011;3207;42.648;23.406;2023-09-19T06:24:20;10.48;;;4.72;;
6348;SDS011;3207;42.648;23.406;2023-09-19T06:26:46;8.30;;;4.60;;
6348;SDS011;3207;42.648;23.406;2023-09-19T06:29:14;4.40;;;3.97;;
6348;SDS011;3207;42.648;23.406;2023-09-19T06:31:41;8.85;;;4.15;;
6348;SDS011;3207;42.648;23.406;2023-09-19T06:34:09;9.52;;;4.70;;
6348;SDS011;3207;42.648;23.406;2023-09-19T06:36:38;7.10;;;4.95;;
6348;SDS011;3207;42.648;23.406;2023-09-19T06:39:04;13.27;;;4.80;;
6348;SDS011;3207;42.648;23.406;2023-09-19T06:41:32;8.90;;;3.45;;
6348;SDS011;3207;42.648;23.406;2023-09-19T06:43:58;7.88;;;4.75;;
6348;SDS011;3207;42.648;23.406;2023-09-19T06:46:25;6.63;;;3.97;;
6348;SDS011;3207;42.648;23.406;2023-09-19T06:48:57;11.75;;;4.78;;
6348;SDS011;3207;42.648;23.406;2023-09-19T06:51:24;6.32;;;4.13;;
6348;SDS011;3207;42.648;23.406;2023-09-19T06:53:52;9.13;;;4.72;;
6348;SDS011;3207;42.648;23.406;2023-09-19T06:56:19;7.57;;;4.65;;
6348;SDS011;3207;42.648;23.406;2023-09-19T06:58:50;5.50;;;3.03;;
6348;SDS011;3207;42.648;23.406;2023-09-19T07:01:17;6.57;;;4.63;;
6348;SDS011;3207;42.648;23.406;2023-09-19T07:03:44;6.30;;;4.57;;
6348;SDS011;3207;42.648;23.406;2023-09-19T07:06:11;5.28;;;3.25;;
6348;SDS011;3207;42.648;23.406;2023-09-19T07:08:37;5.13;;;3.88;;
6348;SDS011;3207;42.648;23.406;2023-09-19T07:11:06;6.75;;;3.53;;
6348;SDS011;3207;42.648;23.406;2023-09-19T07:13:32;5.00;;;3.10;;
6348;SDS011;3207;42.648;23.406;2023-09-19T07:16:00;5.05;;;3.42;;
6348;SDS011;3207;42.648;23.406;2023-09-19T07:18:26;4.10;;;2.65;;
6348;SDS011;3207;42.648;23.406;2023-09-19T07:20:56;9.05;;;4.05;;
6348;SDS011;3207;42.648;23.406;2023-09-19T07:23:26;10.30;;;3.85;;
6348;SDS011;3207;42.648;23.406;2023-09-19T07:25:56;9.88;;;3.58;;
6348;SDS011;3207;42.648;23.406;2023-09-19T07:28:25;6.30;;;3.08;;
6348;SDS011;3207;42.648;23.406;2023-09-19T07:30:52;6.55;;;3.05;;
6348;SDS011;3207;42.648;23.406;2023-09-19T07:33:19;6.57;;;4.03;;
6348;SDS011;3207;42.648;23.406;2023-09-19T07:35:46;5.38;;;3.45;;
6348;SDS011;3207;42.648;23.406;2023-09-19T07:38:12;5.03;;;2.97;;
6348;SDS011;3207;42.648;23.406;2023-09-19T07:40:39;5.25;;;3.72;;
6348;SDS011;3207;42.648;23.406;2023-09-19T07:43:06;8.65;;;3.55;;
6348;SDS011;3207;42.648;23.406;2023-09-19T07:45:35;5.35;;;3.40;;
6348;SDS011;3207;42.648;23.406;2023-09-19T07:48:02;10.13;;;3.15;;
6348;SDS011;3207;42.648;23.406;2023-09-19T07:50:33;5.85;;;3.28;;
6348;SDS011;3207;42.648;23.406;2023-09-19T07:53:01;5.35;;;3.42;;
6348;SDS011;3207;42.648;23.406;2023-09-19T07:55:30;8.05;;;3.13;;
6348;SDS011;3207;42.648;23.406;2023-09-19T07:57:59;10.52;;;2.38;;
6348;SDS011;3207;42.648;23.406;2023-09-19T08:00:28;7.10;;;4.78;;
6348;SDS011;3207;42.648;23.406;2023-09-19T08:02:56;4.68;;;3.70;;
6348;SDS011;3207;42.648;23.406;2023-09-19T08:05:23;5.63;;;3.05;;
6348;SDS011;3207;42.648;23.406;2023-09-19T08:07:49;5.55;;;2.72;;
6348;SDS011;3207;42.648;23.406;2023-09-19T08:10:17;3.42;;;2.20;;
6348;SDS011;3207;42.648;23.406;2023-09-19T08:12:45;6.47;;;2.90;;
6348;SDS011;3207;42.648;23.406;2023-09-19T08:15:13;2.78;;;2.20;;
6348;SDS011;3207;42.648;23.406;2023-09-19T08:17:40;4.10;;;2.88;;
6348;SDS011;3207;42.648;23.406;2023-09-19T08:20:09;8.30;;;2.45;;
6348;SDS011;3207;42.648;23.406;2023-09-19T08:22:42;6.32;;;2.90;;
6348;SDS011;3207;42.648;23.406;2023-09-19T08:25:08;7.93;;;3.85;;
6348;SDS011;3207;42.648;23.406;2023-09-19T08:27:35;3.47;;;2.60;;
6348;SDS011;3207;42.648;23.406;2023-09-19T08:30:02;5.20;;;3.45;;
6348;SDS011;3207;42.648;23.406;2023-09-19T08:32:29;3.10;;;2.58;;
6348;SDS011;3207;42.648;23.406;2023-09-19T08:34:55;3.30;;;3.00;;
6348;SDS011;3207;42.648;23.406;2023-09-19T08:37:23;5.30;;;3.25;;
6348;SDS011;3207;42.648;23.406;2023-09-19T08:39:50;5.97;;;3.40;;
6348;SDS011;3207;42.648;23.406;2023-09-19T08:42:16;13.00;;;3.50;;
6348;SDS011;3207;42.648;23.406;2023-09-19T08:44:46;6.38;;;3.03;;
6348;SDS011;3207;42.648;23.406;2023-09-19T08:47:14;4.18;;;2.88;;
6348;SDS011;3207;42.648;23.406;2023-09-19T08:49:45;6.25;;;2.83;;
6348;SDS011;3207;42.648;23.406;2023-09-19T08:52:19;3.13;;;2.30;;
6348;SDS011;3207;42.648;23.406;2023-09-19T08:54:50;6.95;;;2.85;;
6348;SDS011;3207;42.648;23.406;2023-09-19T08:57:17;3.28;;;2.20;;
6348;SDS011;3207;42.648;23.406;2023-09-19T08:59:47;5.28;;;2.20;;
6348;SDS011;3207;42.648;23.406;2023-09-19T09:02:15;4.57;;;2.30;;
6348;SDS011;3207;42.648;23.406;2023-09-19T09:04:44;3.10;;;2.13;;
6348;SDS011;3207;42.648;23.406;2023-09-19T09:07:11;3.85;;;2.45;;
6348;SDS011;3207;42.648;23.406;2023-09-19T09:09:38;4.13;;;2.25;;
6348;SDS011;3207;42.648;23.406;2023-09-19T09:12:09;5.43;;;2.45;;
6348;SDS011;3207;42.648;23.406;2023-09-19T09:14:37;2.25;;;2.00;;
6348;SDS011;3207;42.648;23.406;2023-09-19T09:17:04;3.70;;;2.63;;
6348;SDS011;3207;42.648;23.406;2023-09-19T09:19:30;3.20;;;2.47;;
6348;SDS011;3207;42.648;23.406;2023-09-19T09:22:05;5.50;;;3.03;;
6348;SDS011;3207;42.648;23.406;2023-09-19T09:24:31;2.92;;;2.17;;
6348;SDS011;3207;42.648;23.406;2023-09-19T09:26:59;7.88;;;3.10;;
6348;SDS011;3207;42.648;23.406;2023-09-19T09:32:21;2.67;;;2.47;;
6348;SDS011;3207;42.648;23.406;2023-09-19T09:34:49;3.08;;;2.50;;
6348;SDS011;3207;42.648;23.406;2023-09-19T09:37:17;5.97;;;2.78;;
6348;SDS011;3207;42.648;23.406;2023-09-19T09:39:49;4.63;;;2.40;;
6348;SDS011;3207;42.648;23.406;2023-09-19T09:42:28;4.43;;;2.55;;
6348;SDS011;3207;42.648;23.406;2023-09-19T09:45:06;6.05;;;2.38;;
6348;SDS011;3207;42.648;23.406;2023-09-19T09:47:43;5.75;;;2.63;;
6348;SDS011;3207;42.648;23.406;2023-09-19T09:50:25;4.82;;;3.13;;
6348;SDS011;3207;42.648;23.406;2023-09-19T09:52:54;3.60;;;2.80;;
6348;SDS011;3207;42.648;23.406;2023-09-19T09:55:26;3.13;;;2.38;;
6348;SDS011;3207;42.648;23.406;2023-09-19T09:57:59;4.53;;;2.75;;
6348;SDS011;3207;42.648;23.406;2023-09-19T10:00:51;4.82;;;2.55;;
6348;SDS011;3207;42.648;23.406;2023-09-19T10:03:23;5.18;;;2.40;;
6348;SDS011;3207;42.648;23.406;2023-09-19T10:05:59;3.95;;;2.80;;
6348;SDS011;3207;42.648;23.406;2023-09-19T10:08:33;5.47;;;2.72;;
6348;SDS011;3207;42.648;23.406;2023-09-19T10:11:02;6.93;;;3.20;;
6348;SDS011;3207;42.648;23.406;2023-09-19T10:13:41;7.30;;;2.78;;
6348;SDS011;3207;42.648;23.406;2023-09-19T10:16:09;4.00;;;2.97;;
6348;SDS011;3207;42.648;23.406;2023-09-19T10:18:37;4.15;;;2.85;;
6348;SDS011;3207;42.648;23.406;2023-09-19T10:21:05;6.57;;;3.50;;
6348;SDS011;3207;42.648;23.406;2023-09-19T10:23:33;7.00;;;2.97;;
6348;SDS011;3207;42.648;23.406;2023-09-19T10:26:02;3.15;;;2.45;;
6348;SDS011;3207;42.648;23.406;2023-09-19T10:28:30;6.80;;;3.67;;
6348;SDS011;3207;42.648;23.406;2023-09-19T10:30:56;6.88;;;3.00;;
6348;SDS011;3207;42.648;23.406;2023-09-19T10:33:24;3.17;;;2.72;;
6348;SDS011;3207;42.648;23.406;2023-09-19T10:35:53;6.07;;;2.95;;
6348;SDS011;3207;42.648;23.406;2023-09-19T10:38:22;4.75;;;2.92;;
6348;SDS011;3207;42.648;23.406;2023-09-19T10:40:50;3.20;;;2.90;;
6348;SDS011;3207;42.648;23.406;2023-09-19T10:43:17;5.05;;;3.50;;
6348;SDS011;3207;42.648;23.406;2023-09-19T10:45:44;6.80;;;3.20;;
6348;SDS011;3207;42.648;23.406;2023-09-19T10:48:12;3.50;;;2.85;;
6348;SDS011;3207;42.648;23.406;2023-09-19T10:50:42;4.45;;;2.97;;
6348;SDS011;3207;42.648;23.406;2023-09-19T10:53:11;4.00;;;3.30;;
6348;SDS011;3207;42.648;23.406;2023-09-19T10:55:38;4.97;;;3.40;;
6348;SDS011;3207;42.648;23.406;2023-09-19T10:58:05;4.25;;;3.28;;
6348;SDS011;3207;42.648;23.406;2023-09-19T11:00:52;4.97;;;3.13;;
6348;SDS011;3207;42.648;23.406;2023-09-19T11:03:19;4.65;;;3.15;;
6348;SDS011;3207;42.648;23.406;2023-09-19T11:08:59;3.47;;;3.17;;
6348;SDS011;3207;42.648;23.406;2023-09-19T11:11:47;5.30;;;3.55;;
6348;SDS011;3207;42.648;23.406;2023-09-19T11:25:43;5.80;;;3.60;;
6348;SDS011;3207;42.648;23.406;2023-09-19T11:28:32;3.63;;;3.33;;
6348;SDS011;3207;42.648;23.406;2023-09-19T11:37:01;5.38;;;3.75;;
6348;SDS011;3207;42.648;23.406;2023-09-19T11:39:29;3.35;;;2.72;;
6348;SDS011;3207;42.648;23.406;2023-09-19T11:41:57;3.17;;;2.83;;
6348;SDS011;3207;42.648;23.406;2023-09-19T11:44:31;3.80;;;2.97;;
6348;SDS011;3207;42.648;23.406;2023-09-19T11:47:04;4.97;;;2.88;;
6348;SDS011;3207;42.648;23.406;2023-09-19T11:49:32;3.42;;;3.00;;
6348;SDS011;3207;42.648;23.406;2023-09-19T11:52:00;3.65;;;3.20;;
6348;SDS011;3207;42.648;23.406;2023-09-19T11:54:30;3.10;;;2.53;;
6348;SDS011;3207;42.648;23.406;2023-09-19T11:56:59;3.30;;;3.00;;
6348;SDS011;3207;42.648;23.406;2023-09-19T11:59:28;4.65;;;3.08;;
6348;SDS011;3207;42.648;23.406;2023-09-19T12:01:56;3.38;;;3.08;;
6348;SDS011;3207;42.648;23.406;2023-09-19T12:04:33;7.32;;;2.75;;
6348;SDS011;3207;42.648;23.406;2023-09-19T12:07:00;5.10;;;2.95;;
6348;SDS011;3207;42.648;23.406;2023-09-19T12:09:27;4.10;;;2.90;;
6348;SDS011;3207;42.648;23.406;2023-09-19T12:11:54;2.72;;;2.20;;
6348;SDS011;3207;42.648;23.406;2023-09-19T12:14:25;2.97;;;2.50;;
6348;SDS011;3207;42.648;23.406;2023-09-19T12:16:53;2.50;;;2.30;;
6348;SDS011;3207;42.648;23.406;2023-09-19T12:19:21;6.20;;;3.35;;
6348;SDS011;3207;42.648;23.406;2023-09-19T12:21:55;4.03;;;3.15;;
6348;SDS011;3207;42.648;23.406;2023-09-19T12:24:23;4.30;;;3.50;;
6348;SDS011;3207;42.648;23.406;2023-09-19T12:26:55;5.38;;;4.88;;
6348;SDS011;3207;42.648;23.406;2023-09-19T12:29:27;4.15;;;3.33;;
6348;SDS011;3207;42.648;23.406;2023-09-19T12:31:56;5.97;;;2.85;;
6348;SDS011;3207;42.648;23.406;2023-09-19T12:34:23;3.15;;;2.63;;
6348;SDS011;3207;42.648;23.406;2023-09-19T12:37:08;3.17;;;2.78;;
6348;SDS011;3207;42.648;23.406;2023-09-19T12:39:38;7.68;;;3.40;;
6348;SDS011;3207;42.648;23.406;2023-09-19T12:42:06;4.82;;;3.10;;
6348;SDS011;3207;42.648;23.406;2023-09-19T12:44:35;3.55;;;2.38;;
6348;SDS011;3207;42.648;23.406;2023-09-19T12:47:08;3.35;;;2.88;;
6348;SDS011;3207;42.648;23.406;2023-09-19T12:49:35;5.97;;;3.92;;
6348;SDS011;3207;42.648;23.406;2023-09-19T12:52:02;3.65;;;2.50;;
6348;SDS011;3207;42.648;23.406;2023-09-19T12:54:37;3.30;;;2.25;;
6348;SDS011;3207;42.648;23.406;2023-09-19T12:57:04;3.17;;;2.50;;
6348;SDS011;3207;42.648;23.406;2023-09-19T12:59:31;2.95;;;2.35;;
6348;SDS011;3207;42.648;23.406;2023-09-19T13:02:04;4.75;;;2.72;;
6348;SDS011;3207;42.648;23.406;2023-09-19T13:04:32;3.60;;;1.83;;
6348;SDS011;3207;42.648;23.406;2023-09-19T13:06:59;1.88;;;1.77;;
6348;SDS011;3207;42.648;23.406;2023-09-19T13:09:27;2.67;;;2.15;;
6348;SDS011;3207;42.648;23.406;2023-09-19T13:11:59;2.83;;;2.15;;
6348;SDS011;3207;42.648;23.406;2023-09-19T13:14:27;2.75;;;1.92;;
6348;SDS011;3207;42.648;23.406;2023-09-19T13:16:59;4.00;;;1.90;;
6348;SDS011;3207;42.648;23.406;2023-09-19T13:19:40;2.42;;;2.15;;
6348;SDS011;3207;42.648;23.406;2023-09-19T13:24:52;4.97;;;2.22;;
6348;SDS011;3207;42.648;23.406;2023-09-19T13:27:19;4.13;;;2.67;;
6348;SDS011;3207;42.648;23.406;2023-09-19T13:29:45;2.20;;;2.00;;
6348;SDS011;3207;42.648;23.406;2023-09-19T13:32:12;4.88;;;2.65;;
6348;SDS011;3207;42.648;23.406;2023-09-19T13:34:40;3.60;;;2.50;;
6348;SDS011;3207;42.648;23.406;2023-09-19T13:37:06;3.13;;;2.35;;
6348;SDS011;3207;42.648;23.406;2023-09-19T13:39:35;2.72;;;2.25;;
6348;SDS011;3207;42.648;23.406;2023-09-19T13:42:01;4.00;;;2.20;;
6348;SDS011;3207;42.648;23.406;2023-09-19T13:44:29;3.33;;;2.03;;
6348;SDS011;3207;42.648;23.406;2023-09-19T13:46:56;3.20;;;2.08;;
6348;SDS011;3207;42.648;23.406;2023-09-19T13:49:23;2.35;;;2.15;;
6348;SDS011;3207;42.648;23.406;2023-09-19T13:51:50;2.28;;;2.08;;
6348;SDS011;3207;42.648;23.406;2023-09-19T13:54:17;6.13;;;2.13;;
6348;SDS011;3207;42.648;23.406;2023-09-19T13:56:46;3.42;;;2.20;;
6348;SDS011;3207;42.648;23.406;2023-09-19T13:59:12;4.22;;;1.80;;
6348;SDS011;3207;42.648;23.406;2023-09-19T14:01:39;3.42;;;1.98;;
6348;SDS011;3207;42.648;23.406;2023-09-19T14:04:07;2.53;;;2.03;;
6348;SDS011;3207;42.648;23.406;2023-09-19T14:06:34;7.45;;;2.13;;
6348;SDS011;3207;42.648;23.406;2023-09-19T14:09:04;4.03;;;2.60;;
6348;SDS011;3207;42.648;23.406;2023-09-19T14:11:30;2.08;;;1.98;;
6348;SDS011;3207;42.648;23.406;2023-09-19T14:13:57;3.60;;;2.70;;
6348;SDS011;3207;42.648;23.406;2023-09-19T14:16:24;3.72;;;2.13;;
6348;SDS011;3207;42.648;23.406;2023-09-19T14:18:55;3.63;;;2.47;;
6348;SDS011;3207;42.648;23.406;2023-09-19T14:21:21;3.42;;;2.40;;
6348;SDS011;3207;42.648;23.406;2023-09-19T14:23:48;2.97;;;2.28;;
6348;SDS011;3207;42.648;23.406;2023-09-19T14:26:17;2.55;;;2.35;;
6348;SDS011;3207;42.648;23.406;2023-09-19T14:28:43;3.10;;;2.10;;
6348;SDS011;3207;42.648;23.406;2023-09-19T14:31:10;5.43;;;2.53;;
6348;SDS011;3207;42.648;23.406;2023-09-19T14:33:37;4.18;;;2.47;;
6348;SDS011;3207;42.648;23.406;2023-09-19T14:36:04;3.42;;;2.40;;
6348;SDS011;3207;42.648;23.406;2023-09-19T14:38:32;3.70;;;2.40;;
6348;SDS011;3207;42.648;23.406;2023-09-19T14:40:59;2.28;;;2.10;;
6348;SDS011;3207;42.648;23.406;2023-09-19T14:43:27;3.97;;;2.53;;
6348;SDS011;3207;42.648;23.406;2023-09-19T14:45:55;1.98;;;1.88;;
6348;SDS011;3207;42.648;23.406;2023-09-19T14:48:22;2.88;;;1.90;;
6348;SDS011;3207;42.648;23.406;2023-09-19T14:50:50;3.08;;;2.47;;
6348;SDS011;3207;42.648;23.406;2023-09-19T14:53:17;3.42;;;1.80;;
6348;SDS011;3207;42.648;23.406;2023-09-19T14:55:43;2.05;;;1.60;;
6348;SDS011;3207;42.648;23.406;2023-09-19T14:58:12;6.13;;;2.50;;
6348;SDS011;3207;42.648;23.406;2023-09-19T15:00:40;3.05;;;1.83;;
6348;SDS011;3207;42.648;23.406;2023-09-19T15:03:10;2.65;;;2.17;;
6348;SDS011;3207;42.648;23.406;2023-09-19T15:05:36;3.83;;;1.90;;
6348;SDS011;3207;42.648;23.406;2023-09-19T15:08:04;3.17;;;1.95;;
6348;SDS011;3207;42.648;23.406;2023-09-19T15:10:31;2.63;;;1.67;;
6348;SDS011;3207;42.648;23.406;2023-09-19T15:12:57;4.38;;;2.10;;
6348;SDS011;3207;42.648;23.406;2023-09-19T15:15:24;2.85;;;2.42;;
6348;SDS011;3207;42.648;23.406;2023-09-19T15:17:52;3.45;;;2.40;;
6348;SDS011;3207;42.648;23.406;2023-09-19T15:20:19;1.80;;;1.70;;
6348;SDS011;3207;42.648;23.406;2023-09-19T15:22:45;1.83;;;1.73;;
6348;SDS011;3207;42.648;23.406;2023-09-19T15:25:13;3.03;;;2.47;;
6348;SDS011;3207;42.648;23.406;2023-09-19T15:27:39;3.00;;;2.22;;
6348;SDS011;3207;42.648;23.406;2023-09-19T15:30:07;2.90;;;2.60;;